sensor_id;sensor_type;location;lat;lon;timestamp;P1;durP1;ratioP1;P2;durP2;ratioP2
68457;SDS011;55446;52.094;5.134;2022-11-20T10:48:20;27.17;;;14.10;;
68457;SDS011;65384;52.094;5.134;2022-11-20T10:53:40;31.88;;;14.45;;
68457;SDS011;65384;52.094;5.134;2022-11-20T10:56:14;29.13;;;13.63;;
68457;SDS011;65384;52.094;5.134;2022-11-20T11:01:30;32.95;;;13.52;;
68457;SDS011;65384;52.094;5.134;2022-11-20T11:03:55;28.25;;;12.63;;
68457;SDS011;65384;52.094;5.134;2022-11-20T11:09:04;33.13;;;13.82;;
68457;SDS011;65384;52.094;5.134;2022-11-20T11:11:35;37.13;;;14.45;;
68457;SDS011;65384;52.094;5.134;2022-11-20T11:14:06;37.28;;;14.13;;
68457;SDS011;65384;52.094;5.134;2022-11-20T11:16:35;33.30;;;13.30;;
68457;SDS011;65384;52.094;5.134;2022-11-20T11:19:18;36.70;;;14.15;;
68457;SDS011;65384;52.094;5.134;2022-11-20T11:21:47;35.63;;;14.27;;
68457;SDS011;65384;52.094;5.134;2022-11-20T11:24:24;32.53;;;13.32;;
68457;SDS011;65384;52.094;5.134;2022-11-20T11:26:52;34.70;;;13.75;;
68457;SDS011;65384;52.094;5.134;2022-11-20T11:29:24;36.22;;;14.68;;
68457;SDS011;65384;52.094;5.134;2022-11-20T11:32:02;35.33;;;13.95;;
68457;SDS011;65384;52.094;5.134;2022-11-20T11:34:28;36.75;;;13.65;;
68457;SDS011;65384;52.094;5.134;2022-11-20T11:36:55;36.83;;;15.07;;
68457;SDS011;65384;52.094;5.134;2022-11-20T11:39:22;37.67;;;15.43;;
68457;SDS011;65384;52.094;5.134;2022-11-20T11:41:48;34.58;;;12.52;;
68457;SDS011;65384;52.094;5.134;2022-11-20T11:44:18;40.72;;;14.63;;
68457;SDS011;65384;52.094;5.134;2022-11-20T11:47:04;35.70;;;14.15;;
68457;SDS011;65384;52.094;5.134;2022-11-20T11:49:31;36.58;;;15.25;;
68457;SDS011;65384;52.094;5.134;2022-11-20T11:51:58;39.20;;;15.02;;
68457;SDS011;65384;52.094;5.134;2022-11-20T11:54:58;39.00;;;14.73;;
68457;SDS011;65384;52.094;5.134;2022-11-20T12:00:00;37.38;;;14.50;;
68457;SDS011;65384;52.094;5.134;2022-11-20T12:07:49;38.28;;;14.40;;
68457;SDS011;65384;52.094;5.134;2022-11-20T12:10:23;39.78;;;15.43;;
68457;SDS011;65384;52.094;5.134;2022-11-20T12:15:32;35.90;;;14.82;;
68457;SDS011;65384;52.094;5.134;2022-11-20T12:17:58;37.80;;;14.05;;
68457;SDS011;65384;52.094;5.134;2022-11-20T12:20:26;36.47;;;14.40;;
68457;SDS011;65384;52.094;5.134;2022-11-20T12:25:38;35.05;;;14.25;;
68457;SDS011;65384;52.094;5.134;2022-11-20T12:30:49;30.48;;;12.23;;
68457;SDS011;65384;52.094;5.134;2022-11-20T12:36:16;38.63;;;14.82;;
68457;SDS011;65384;52.094;5.134;2022-11-20T12:42:37;41.03;;;14.93;;
68457;SDS011;65384;52.094;5.134;2022-11-20T12:45:22;34.67;;;13.65;;
68457;SDS011;65384;52.094;5.134;2022-11-20T13:05:15;44.05;;;14.00;;
68457;SDS011;65384;52.094;5.134;2022-11-20T13:07:44;39.70;;;14.32;;
68457;SDS011;65384;52.094;5.134;2022-11-20T13:10:14;42.40;;;14.23;;
68457;SDS011;65384;52.094;5.134;2022-11-20T13:12:44;37.78;;;13.90;;
68457;SDS011;65384;52.094;5.134;2022-11-20T13:15:22;40.45;;;13.63;;
68457;SDS011;65384;52.094;5.134;2022-11-20T13:17:55;45.38;;;15.35;;
68457;SDS011;65384;52.094;5.134;2022-11-20T13:20:23;44.58;;;15.13;;
68457;SDS011;65384;52.094;5.134;2022-11-20T13:22:49;46.00;;;14.90;;
68457;SDS011;65384;52.094;5.134;2022-11-20T13:25:26;39.67;;;14.18;;
68457;SDS011;65384;52.094;5.134;2022-11-20T13:27:56;40.55;;;14.82;;
68457;SDS011;65384;52.094;5.134;2022-11-20T13:30:26;42.35;;;15.52;;
68457;SDS011;65384;52.094;5.134;2022-11-20T13:35:32;40.03;;;14.38;;
68457;SDS011;65384;52.094;5.134;2022-11-20T13:40:29;39.33;;;14.10;;
68457;SDS011;65384;52.094;5.134;2022-11-20T13:43:07;43.88;;;16.15;;
68457;SDS011;65384;52.094;5.134;2022-11-20T13:45:36;35.70;;;13.57;;
68457;SDS011;65384;52.094;5.134;2022-11-20T13:48:03;40.13;;;14.57;;
68457;SDS011;65384;52.094;5.134;2022-11-20T13:56:52;41.40;;;15.20;;
68457;SDS011;65384;52.094;5.134;2022-11-20T14:02:27;44.33;;;16.67;;
68457;SDS011;65384;52.094;5.134;2022-11-20T14:04:54;45.45;;;16.02;;
68457;SDS011;65384;52.094;5.134;2022-11-20T14:07:27;40.45;;;16.90;;
68457;SDS011;65384;52.094;5.134;2022-11-20T14:10:18;49.28;;;17.17;;
68457;SDS011;65384;52.094;5.134;2022-11-20T14:12:45;41.55;;;15.30;;
68457;SDS011;65384;52.094;5.134;2022-11-20T14:17:57;46.58;;;16.63;;
68457;SDS011;65384;52.094;5.134;2022-11-20T14:20:29;46.28;;;15.52;;
68457;SDS011;65384;52.094;5.134;2022-11-20T14:22:56;45.10;;;16.15;;
68457;SDS011;65384;52.094;5.134;2022-11-20T14:25:23;44.38;;;16.10;;
68457;SDS011;65384;52.094;5.134;2022-11-20T14:27:56;43.03;;;16.05;;
68457;SDS011;65384;52.094;5.134;2022-11-20T14:30:26;52.10;;;17.90;;
68457;SDS011;65384;52.094;5.134;2022-11-20T14:32:54;42.88;;;15.75;;
68457;SDS011;65384;52.094;5.134;2022-11-20T14:35:23;43.55;;;16.17;;
68457;SDS011;65384;52.094;5.134;2022-11-20T14:37:50;43.40;;;15.27;;
68457;SDS011;65384;52.094;5.134;2022-11-20T14:42:53;53.33;;;16.38;;
68457;SDS011;65384;52.094;5.134;2022-11-20T14:45:19;38.88;;;15.20;;
68457;SDS011;65384;52.094;5.134;2022-11-20T14:47:45;38.50;;;14.20;;
68457;SDS011;65384;52.094;5.134;2022-11-20T14:52:57;45.45;;;16.13;;
68457;SDS011;65384;52.094;5.134;2022-11-20T14:57:58;46.65;;;17.55;;
68457;SDS011;65384;52.094;5.134;2022-11-20T15:00:25;37.40;;;15.32;;
68457;SDS011;65384;52.094;5.134;2022-11-20T15:02:51;45.15;;;16.85;;
68457;SDS011;65384;52.094;5.134;2022-11-20T15:05:18;45.53;;;17.77;;
68457;SDS011;65384;52.094;5.134;2022-11-20T15:07:50;46.88;;;18.30;;
68457;SDS011;65384;52.094;5.134;2022-11-20T15:10:24;46.13;;;18.17;;
68457;SDS011;65384;52.094;5.134;2022-11-20T15:18:51;46.08;;;17.55;;
68457;SDS011;65384;52.094;5.134;2022-11-20T15:21:02;42.50;;;16.45;;
68457;SDS011;65384;52.094;5.134;2022-11-20T15:23:29;45.88;;;17.98;;
68457;SDS011;65384;52.094;5.134;2022-11-20T15:25:54;44.88;;;17.85;;
68457;SDS011;65384;52.094;5.134;2022-11-20T15:28:21;49.80;;;18.17;;
68457;SDS011;65384;52.094;5.134;2022-11-20T15:30:50;44.42;;;16.50;;
68457;SDS011;65384;52.094;5.134;2022-11-20T15:33:16;56.78;;;19.05;;
68457;SDS011;65384;52.094;5.134;2022-11-20T15:35:42;45.65;;;16.75;;
68457;SDS011;65384;52.094;5.134;2022-11-20T15:38:08;47.97;;;18.15;;
68457;SDS011;65384;52.094;5.134;2022-11-20T15:40:33;47.22;;;17.45;;
68457;SDS011;65384;52.094;5.134;2022-11-20T15:43:01;52.78;;;18.00;;
68457;SDS011;65384;52.094;5.134;2022-11-20T15:45:47;44.90;;;15.93;;
68457;SDS011;65384;52.094;5.134;2022-11-20T15:48:21;45.33;;;16.85;;
68457;SDS011;65384;52.094;5.134;2022-11-20T15:50:54;41.58;;;16.52;;
68457;SDS011;65384;52.094;5.134;2022-11-20T15:53:23;41.95;;;15.50;;
68457;SDS011;65384;52.094;5.134;2022-11-20T15:55:48;41.10;;;15.50;;
68457;SDS011;65384;52.094;5.134;2022-11-20T15:58:14;47.65;;;15.57;;
68457;SDS011;65384;52.094;5.134;2022-11-20T16:00:44;43.40;;;14.80;;
68457;SDS011;65384;52.094;5.134;2022-11-20T16:03:13;40.80;;;15.40;;
68457;SDS011;65384;52.094;5.134;2022-11-20T16:05:43;45.25;;;15.43;;
68457;SDS011;65384;52.094;5.134;2022-11-20T16:08:08;45.33;;;15.82;;
68457;SDS011;65384;52.094;5.134;2022-11-20T16:10:34;40.22;;;14.85;;
68457;SDS011;65384;52.094;5.134;2022-11-20T16:13:00;42.63;;;15.93;;
68457;SDS011;65384;52.094;5.134;2022-11-20T16:15:45;42.25;;;15.85;;
68457;SDS011;65384;52.094;5.134;2022-11-20T16:18:17;37.40;;;14.35;;
68457;SDS011;65384;52.094;5.134;2022-11-20T16:20:45;44.63;;;15.27;;
68457;SDS011;65384;52.094;5.134;2022-11-20T16:23:13;38.58;;;14.25;;
68457;SDS011;65384;52.094;5.134;2022-11-20T16:25:41;42.15;;;16.25;;
68457;SDS011;65384;52.094;5.134;2022-11-20T16:28:10;46.88;;;16.50;;
68457;SDS011;65384;52.094;5.134;2022-11-20T16:30:38;46.08;;;15.63;;
68457;SDS011;65384;52.094;5.134;2022-11-20T16:33:12;43.20;;;15.77;;
68457;SDS011;65384;52.094;5.134;2022-11-20T16:35:39;43.30;;;15.32;;
68457;SDS011;65384;52.094;5.134;2022-11-20T16:38:05;44.95;;;15.93;;
68457;SDS011;65384;52.094;5.134;2022-11-20T16:40:30;42.28;;;16.08;;
68457;SDS011;65384;52.094;5.134;2022-11-20T16:42:56;43.40;;;15.48;;
68457;SDS011;65384;52.094;5.134;2022-11-20T16:45:22;44.78;;;15.25;;
68457;SDS011;65384;52.094;5.134;2022-11-20T16:47:48;43.03;;;15.82;;
68457;SDS011;65384;52.094;5.134;2022-11-20T16:50:15;37.85;;;14.15;;
68457;SDS011;65384;52.094;5.134;2022-11-20T16:52:41;48.88;;;15.27;;
68457;SDS011;65384;52.094;5.134;2022-11-20T16:55:15;41.10;;;14.65;;
68457;SDS011;65384;52.094;5.134;2022-11-20T16:57:44;37.05;;;14.48;;
68457;SDS011;65384;52.094;5.134;2022-11-20T17:00:09;45.08;;;14.90;;
68457;SDS011;65384;52.094;5.134;2022-11-20T17:02:38;35.88;;;13.35;;
68457;SDS011;65384;52.094;5.134;2022-11-20T17:05:07;43.50;;;15.10;;
68457;SDS011;65384;52.094;5.134;2022-11-20T17:07:32;36.45;;;14.02;;
68457;SDS011;65384;52.094;5.134;2022-11-20T17:09:58;38.80;;;14.65;;
68457;SDS011;65384;52.094;5.134;2022-11-20T17:12:25;39.22;;;14.70;;
68457;SDS011;65384;52.094;5.134;2022-11-20T17:14:50;41.20;;;16.25;;
68457;SDS011;65384;52.094;5.134;2022-11-20T17:17:18;40.78;;;15.23;;
68457;SDS011;65384;52.094;5.134;2022-11-20T17:19:52;36.17;;;15.30;;
68457;SDS011;65384;52.094;5.134;2022-11-20T17:22:18;37.00;;;14.32;;
68457;SDS011;65384;52.094;5.134;2022-11-20T17:24:43;41.35;;;15.63;;
68457;SDS011;65384;52.094;5.134;2022-11-20T17:27:08;35.63;;;14.52;;
68457;SDS011;65384;52.094;5.134;2022-11-20T17:29:34;43.17;;;15.98;;
68457;SDS011;65384;52.094;5.134;2022-11-20T17:31:59;39.28;;;14.68;;
68457;SDS011;65384;52.094;5.134;2022-11-20T17:34:25;35.45;;;14.20;;
68457;SDS011;65384;52.094;5.134;2022-11-20T17:36:50;32.90;;;13.15;;
68457;SDS011;65384;52.094;5.134;2022-11-20T17:39:16;33.22;;;13.55;;
68457;SDS011;65384;52.094;5.134;2022-11-20T17:41:41;35.13;;;14.43;;
68457;SDS011;65384;52.094;5.134;2022-11-20T17:44:11;35.25;;;13.57;;
68457;SDS011;65384;52.094;5.134;2022-11-20T17:46:36;34.95;;;13.88;;
68457;SDS011;65384;52.094;5.134;2022-11-20T17:49:02;34.33;;;14.02;;
68457;SDS011;65384;52.094;5.134;2022-11-20T17:51:28;35.20;;;14.23;;
68457;SDS011;65384;52.094;5.134;2022-11-20T17:53:59;38.22;;;14.82;;
68457;SDS011;65384;52.094;5.134;2022-11-20T17:56:26;37.10;;;15.00;;
68457;SDS011;65384;52.094;5.134;2022-11-20T17:59:13;36.45;;;13.90;;
68457;SDS011;65384;52.094;5.134;2022-11-20T18:01:39;34.08;;;13.63;;
68457;SDS011;65384;52.094;5.134;2022-11-20T18:04:06;37.15;;;14.63;;
68457;SDS011;65384;52.094;5.134;2022-11-20T18:06:32;41.88;;;15.70;;
68457;SDS011;65384;52.094;5.134;2022-11-20T18:08:58;36.28;;;14.73;;
68457;SDS011;65384;52.094;5.134;2022-11-20T18:11:24;40.95;;;15.52;;
68457;SDS011;65384;52.094;5.134;2022-11-20T18:13:52;43.60;;;16.63;;
68457;SDS011;65384;52.094;5.134;2022-11-20T18:16:39;39.83;;;15.82;;
68457;SDS011;65384;52.094;5.134;2022-11-20T18:19:09;44.08;;;15.73;;
68457;SDS011;65384;52.094;5.134;2022-11-20T18:21:35;42.38;;;16.27;;
68457;SDS011;65384;52.094;5.134;2022-11-20T18:24:01;38.83;;;15.98;;
68457;SDS011;65384;52.094;5.134;2022-11-20T18:26:26;36.90;;;14.98;;
68457;SDS011;65384;52.094;5.134;2022-11-20T18:28:54;39.95;;;15.73;;
68457;SDS011;65384;52.094;5.134;2022-11-20T18:31:20;50.13;;;17.45;;
68457;SDS011;65384;52.094;5.134;2022-11-20T18:33:48;41.88;;;16.23;;
68457;SDS011;65384;52.094;5.134;2022-11-20T18:36:17;43.38;;;16.83;;
68457;SDS011;65384;52.094;5.134;2022-11-20T18:38:45;42.42;;;16.58;;
68457;SDS011;65384;52.094;5.134;2022-11-20T18:41:12;41.38;;;16.45;;
68457;SDS011;65384;52.094;5.134;2022-11-20T18:43:59;41.95;;;16.77;;
68457;SDS011;65384;52.094;5.134;2022-11-20T18:46:44;40.58;;;16.38;;
68457;SDS011;65384;52.094;5.134;2022-11-20T18:49:10;42.15;;;17.20;;
68457;SDS011;65384;52.094;5.134;2022-11-20T18:51:36;43.50;;;16.38;;
68457;SDS011;65384;52.094;5.134;2022-11-20T18:54:05;38.63;;;15.20;;
68457;SDS011;65384;52.094;5.134;2022-11-20T18:56:31;43.15;;;16.80;;
68457;SDS011;65384;52.094;5.134;2022-11-20T18:59:02;41.33;;;16.40;;
68457;SDS011;65384;52.094;5.134;2022-11-20T19:01:28;34.72;;;14.43;;
68457;SDS011;65384;52.094;5.134;2022-11-20T19:03:57;40.47;;;16.27;;
68457;SDS011;65384;52.094;5.134;2022-11-20T19:06:23;43.35;;;16.25;;
68457;SDS011;65384;52.094;5.134;2022-11-20T19:08:49;44.92;;;17.85;;
68457;SDS011;65384;52.094;5.134;2022-11-20T19:11:15;42.40;;;15.85;;
68457;SDS011;65384;52.094;5.134;2022-11-20T19:13:41;40.33;;;16.08;;
68457;SDS011;65384;52.094;5.134;2022-11-20T19:16:07;44.30;;;17.65;;
68457;SDS011;65384;52.094;5.134;2022-11-20T19:18:41;45.47;;;17.30;;
68457;SDS011;65384;52.094;5.134;2022-11-20T19:21:11;41.28;;;15.77;;
68457;SDS011;65384;52.094;5.134;2022-11-20T19:23:38;42.05;;;16.88;;
68457;SDS011;65384;52.094;5.134;2022-11-20T19:26:06;43.83;;;16.60;;
68457;SDS011;65384;52.094;5.134;2022-11-20T19:28:33;39.53;;;16.45;;
68457;SDS011;65384;52.094;5.134;2022-11-20T19:31:03;40.70;;;17.27;;
68457;SDS011;65384;52.094;5.134;2022-11-20T19:33:33;44.88;;;17.23;;
68457;SDS011;65384;52.094;5.134;2022-11-20T19:36:12;43.85;;;16.92;;
68457;SDS011;65384;52.094;5.134;2022-11-20T19:38:39;43.70;;;17.13;;
68457;SDS011;65384;52.094;5.134;2022-11-20T19:41:06;44.70;;;17.25;;
68457;SDS011;65384;52.094;5.134;2022-11-20T19:43:33;40.53;;;16.15;;
68457;SDS011;65384;52.094;5.134;2022-11-20T19:45:58;40.47;;;16.70;;
68457;SDS011;65384;52.094;5.134;2022-11-20T19:48:24;37.15;;;15.65;;
68457;SDS011;65384;52.094;5.134;2022-11-20T19:54:01;38.88;;;15.80;;
68457;SDS011;65384;52.094;5.134;2022-11-20T19:56:28;38.80;;;15.77;;
68457;SDS011;65384;52.094;5.134;2022-11-20T19:58:54;36.05;;;15.30;;
68457;SDS011;65384;52.094;5.134;2022-11-20T20:01:24;41.35;;;16.33;;
68457;SDS011;65384;52.094;5.134;2022-11-20T20:03:51;37.90;;;15.32;;
68457;SDS011;65384;52.094;5.134;2022-11-20T20:06:19;41.30;;;16.83;;
68457;SDS011;65384;52.094;5.134;2022-11-20T20:08:46;39.72;;;15.65;;
68457;SDS011;65384;52.094;5.134;2022-11-20T20:11:13;38.38;;;16.50;;
68457;SDS011;65384;52.094;5.134;2022-11-20T20:13:39;37.60;;;15.88;;
68457;SDS011;65384;52.094;5.134;2022-11-20T20:16:06;37.67;;;15.57;;
68457;SDS011;65384;52.094;5.134;2022-11-20T20:18:32;36.88;;;14.98;;
68457;SDS011;65384;52.094;5.134;2022-11-20T20:21:16;36.92;;;15.57;;
68457;SDS011;65384;52.094;5.134;2022-11-20T20:23:49;39.30;;;15.30;;
68457;SDS011;65384;52.094;5.134;2022-11-20T20:26:16;38.47;;;14.95;;
68457;SDS011;65384;52.094;5.134;2022-11-20T20:28:43;35.17;;;14.90;;
68457;SDS011;65384;52.094;5.134;2022-11-20T20:31:16;40.88;;;16.23;;
68457;SDS011;65384;52.094;5.134;2022-11-20T20:33:50;45.03;;;16.10;;
68457;SDS011;65384;52.094;5.134;2022-11-20T20:36:16;38.72;;;15.27;;
68457;SDS011;65384;52.094;5.134;2022-11-20T20:38:46;35.90;;;15.90;;
68457;SDS011;65384;52.094;5.134;2022-11-20T20:41:12;39.20;;;15.63;;
68457;SDS011;65384;52.094;5.134;2022-11-20T20:43:38;39.80;;;16.30;;
68457;SDS011;65384;52.094;5.134;2022-11-20T20:46:23;38.60;;;14.88;;
68457;SDS011;65384;52.094;5.134;2022-11-20T20:48:48;40.47;;;16.75;;
68457;SDS011;65384;52.094;5.134;2022-11-20T20:51:14;41.83;;;15.50;;
68457;SDS011;65384;52.094;5.134;2022-11-20T20:53:42;36.55;;;14.98;;
68457;SDS011;65384;52.094;5.134;2022-11-20T20:56:10;39.13;;;15.68;;
68457;SDS011;65384;52.094;5.134;2022-11-20T20:58:36;39.60;;;15.82;;
68457;SDS011;65384;52.094;5.134;2022-11-20T21:01:02;42.10;;;16.13;;
68457;SDS011;65384;52.094;5.134;2022-11-20T21:03:30;39.45;;;15.35;;
68457;SDS011;65384;52.094;5.134;2022-11-20T21:05:56;37.72;;;15.20;;
68457;SDS011;65384;52.094;5.134;2022-11-20T21:08:22;40.17;;;15.77;;
68457;SDS011;65384;52.094;5.134;2022-11-20T21:11:03;36.17;;;15.20;;
68457;SDS011;65384;52.094;5.134;2022-11-20T21:13:30;41.45;;;16.35;;
68457;SDS011;65384;52.094;5.134;2022-11-20T21:15:56;42.47;;;16.67;;
68457;SDS011;65384;52.094;5.134;2022-11-20T21:18:22;43.33;;;16.45;;
68457;SDS011;65384;52.094;5.134;2022-11-20T21:20:53;42.70;;;17.08;;
68457;SDS011;65384;52.094;5.134;2022-11-20T21:23:38;42.10;;;16.52;;
68457;SDS011;65384;52.094;5.134;2022-11-20T21:26:06;41.65;;;16.20;;
68457;SDS011;65384;52.094;5.134;2022-11-20T21:28:33;42.35;;;16.52;;
68457;SDS011;65384;52.094;5.134;2022-11-20T21:31:03;43.22;;;16.90;;
68457;SDS011;65384;52.094;5.134;2022-11-20T21:33:39;42.65;;;16.05;;
68457;SDS011;65384;52.094;5.134;2022-11-20T21:36:05;41.92;;;16.25;;
68457;SDS011;65384;52.094;5.134;2022-11-20T21:38:32;40.42;;;17.27;;
68457;SDS011;65384;52.094;5.134;2022-11-20T21:40:58;43.22;;;16.88;;
68457;SDS011;65384;52.094;5.134;2022-11-20T21:43:23;42.03;;;16.08;;
68457;SDS011;65384;52.094;5.134;2022-11-20T21:45:49;41.92;;;16.58;;
68457;SDS011;65384;52.094;5.134;2022-11-20T21:48:16;39.67;;;17.30;;
68457;SDS011;65384;52.094;5.134;2022-11-20T21:50:41;43.53;;;17.55;;
68457;SDS011;65384;52.094;5.134;2022-11-20T21:53:06;40.65;;;16.15;;
68457;SDS011;65384;52.094;5.134;2022-11-20T21:55:32;41.72;;;17.15;;
68457;SDS011;65384;52.094;5.134;2022-11-20T21:57:57;40.38;;;16.85;;
68457;SDS011;65384;52.094;5.134;2022-11-20T22:00:22;39.88;;;16.45;;
68457;SDS011;65384;52.094;5.134;2022-11-20T22:02:48;38.85;;;16.58;;
68457;SDS011;65384;52.094;5.134;2022-11-20T22:05:13;41.97;;;16.63;;
68457;SDS011;65384;52.094;5.134;2022-11-20T22:07:41;40.35;;;15.93;;
68457;SDS011;65384;52.094;5.134;2022-11-20T22:10:08;40.88;;;15.95;;
68457;SDS011;65384;52.094;5.134;2022-11-20T22:12:34;42.40;;;16.80;;
68457;SDS011;65384;52.094;5.134;2022-11-20T22:15:00;40.97;;;16.38;;
68457;SDS011;65384;52.094;5.134;2022-11-20T22:17:25;39.38;;;15.20;;
68457;SDS011;65384;52.094;5.134;2022-11-20T22:20:09;37.97;;;15.93;;
68457;SDS011;65384;52.094;5.134;2022-11-20T22:22:35;40.22;;;16.20;;
68457;SDS011;65384;52.094;5.134;2022-11-20T22:25:00;40.90;;;15.82;;
68457;SDS011;65384;52.094;5.134;2022-11-20T22:27:25;40.20;;;15.57;;
68457;SDS011;65384;52.094;5.134;2022-11-20T22:29:51;40.38;;;15.02;;
68457;SDS011;65384;52.094;5.134;2022-11-20T22:32:16;43.92;;;16.30;;
68457;SDS011;65384;52.094;5.134;2022-11-20T22:34:41;40.13;;;15.05;;
68457;SDS011;65384;52.094;5.134;2022-11-20T22:37:07;38.50;;;15.82;;
68457;SDS011;65384;52.094;5.134;2022-11-20T22:39:32;37.55;;;16.30;;
68457;SDS011;65384;52.094;5.134;2022-11-20T22:41:57;40.30;;;16.30;;
68457;SDS011;65384;52.094;5.134;2022-11-20T22:44:23;41.35;;;16.52;;
68457;SDS011;65384;52.094;5.134;2022-11-20T22:46:48;39.63;;;16.00;;
68457;SDS011;65384;52.094;5.134;2022-11-20T22:49:13;40.58;;;15.80;;
68457;SDS011;65384;52.094;5.134;2022-11-20T22:51:39;42.90;;;15.68;;
68457;SDS011;65384;52.094;5.134;2022-11-20T22:54:05;41.28;;;15.82;;
68457;SDS011;65384;52.094;5.134;2022-11-20T22:56:31;37.45;;;15.25;;
68457;SDS011;65384;52.094;5.134;2022-11-20T22:58:57;40.80;;;16.25;;
68457;SDS011;65384;52.094;5.134;2022-11-20T23:01:26;42.03;;;16.10;;
68457;SDS011;65384;52.094;5.134;2022-11-20T23:04:05;42.17;;;15.82;;
68457;SDS011;65384;52.094;5.134;2022-11-20T23:06:33;39.17;;;16.00;;
68457;SDS011;65384;52.094;5.134;2022-11-20T23:08:58;43.63;;;16.17;;
68457;SDS011;65384;52.094;5.134;2022-11-20T23:11:27;42.33;;;16.55;;
68457;SDS011;65384;52.094;5.134;2022-11-20T23:13:54;44.35;;;17.00;;
68457;SDS011;65384;52.094;5.134;2022-11-20T23:16:22;40.40;;;16.33;;
68457;SDS011;65384;52.094;5.134;2022-11-20T23:18:55;44.80;;;16.73;;
68457;SDS011;65384;52.094;5.134;2022-11-20T23:21:25;44.88;;;16.95;;
68457;SDS011;65384;52.094;5.134;2022-11-20T23:23:52;46.85;;;17.08;;
68457;SDS011;65384;52.094;5.134;2022-11-20T23:26:22;41.63;;;17.05;;
68457;SDS011;65384;52.094;5.134;2022-11-20T23:28:49;42.45;;;16.10;;
68457;SDS011;65384;52.094;5.134;2022-11-20T23:31:19;47.15;;;17.92;;
68457;SDS011;65384;52.094;5.134;2022-11-20T23:33:51;51.67;;;19.20;;
68457;SDS011;65384;52.094;5.134;2022-11-20T23:36:17;51.20;;;18.30;;
68457;SDS011;65384;52.094;5.134;2022-11-20T23:38:50;49.85;;;17.70;;
68457;SDS011;65384;52.094;5.134;2022-11-20T23:41:18;47.70;;;17.17;;
68457;SDS011;65384;52.094;5.134;2022-11-20T23:43:44;54.45;;;18.65;;
68457;SDS011;65384;52.094;5.134;2022-11-20T23:46:09;54.45;;;19.13;;
68457;SDS011;65384;52.094;5.134;2022-11-20T23:48:35;50.83;;;18.33;;
68457;SDS011;65384;52.094;5.134;2022-11-20T23:51:01;51.53;;;18.90;;
68457;SDS011;65384;52.094;5.134;2022-11-20T23:53:28;53.72;;;18.75;;
68457;SDS011;65384;52.094;5.134;2022-11-20T23:55:57;48.38;;;17.88;;
68457;SDS011;65384;52.094;5.134;2022-11-20T23:58:25;52.05;;;18.42;;
